sensor_id;sensor_type;location;lat;lon;timestamp;temperature;humidity
52675;DHT22;38569;52.722;6.440;2023-09-30T00:02:07;11.50;99.90
52675;DHT22;38569;52.722;6.440;2023-09-30T00:04:33;11.50;99.90
52675;DHT22;38569;52.722;6.440;2023-09-30T00:06:59;11.50;99.90
52675;DHT22;38569;52.722;6.440;2023-09-30T00:09:25;11.50;99.90
52675;DHT22;38569;52.722;6.440;2023-09-30T00:11:50;11.50;99.90
52675;DHT22;38569;52.722;6.440;2023-09-30T00:14:16;11.50;99.90
52675;DHT22;38569;52.722;6.440;2023-09-30T00:16:43;11.50;99.90
52675;DHT22;38569;52.722;6.440;2023-09-30T00:19:09;11.50;99.90
52675;DHT22;38569;52.722;6.440;2023-09-30T00:21:35;11.50;99.90
52675;DHT22;38569;52.722;6.440;2023-09-30T00:24:01;11.50;99.90
52675;DHT22;38569;52.722;6.440;2023-09-30T00:26:26;11.50;99.90
52675;DHT22;38569;52.722;6.440;2023-09-30T00:28:52;11.50;99.90
52675;DHT22;38569;52.722;6.440;2023-09-30T00:31:18;11.50;99.90
52675;DHT22;38569;52.722;6.440;2023-09-30T00:33:43;11.50;99.90
52675;DHT22;38569;52.722;6.440;2023-09-30T00:36:10;11.50;99.90
52675;DHT22;38569;52.722;6.440;2023-09-30T00:38:37;11.50;99.90
52675;DHT22;38569;52.722;6.440;2023-09-30T00:41:03;11.50;99.90
52675;DHT22;38569;52.722;6.440;2023-09-30T00:43:29;11.50;99.90
52675;DHT22;38569;52.722;6.440;2023-09-30T00:48:42;11.60;99.90
52675;DHT22;38569;52.722;6.440;2023-09-30T00:51:09;11.50;99.90
52675;DHT22;38569;52.722;6.440;2023-09-30T00:53:34;11.50;99.90
52675;DHT22;38569;52.722;6.440;2023-09-30T00:56:00;11.50;99.90
52675;DHT22;38569;52.722;6.440;2023-09-30T00:58:27;11.60;99.90
52675;DHT22;38569;52.722;6.440;2023-09-30T01:00:56;11.60;99.90
52675;DHT22;38569;52.722;6.440;2023-09-30T01:03:23;11.60;99.90
52675;DHT22;38569;52.722;6.440;2023-09-30T01:05:49;11.60;99.90
52675;DHT22;38569;52.722;6.440;2023-09-30T01:08:16;11.60;99.90
52675;DHT22;38569;52.722;6.440;2023-09-30T01:10:42;11.60;99.90
52675;DHT22;38569;52.722;6.440;2023-09-30T01:13:08;11.60;99.90
52675;DHT22;38569;52.722;6.440;2023-09-30T01:15:34;11.60;99.90
52675;DHT22;38569;52.722;6.440;2023-09-30T01:18:00;11.60;99.90
52675;DHT22;38569;52.722;6.440;2023-09-30T01:20:25;11.60;99.90
52675;DHT22;38569;52.722;6.440;2023-09-30T01:22:53;11.60;99.90
52675;DHT22;38569;52.722;6.440;2023-09-30T01:25:19;11.60;99.90
52675;DHT22;38569;52.722;6.440;2023-09-30T01:27:45;11.60;99.90
52675;DHT22;38569;52.722;6.440;2023-09-30T01:30:11;11.60;99.90
52675;DHT22;38569;52.722;6.440;2023-09-30T01:32:39;11.60;99.90
52675;DHT22;38569;52.722;6.440;2023-09-30T01:35:05;11.60;99.90
52675;DHT22;38569;52.722;6.440;2023-09-30T01:37:31;11.50;99.90
52675;DHT22;38569;52.722;6.440;2023-09-30T01:39:57;11.60;99.90
52675;DHT22;38569;52.722;6.440;2023-09-30T01:42:23;11.60;99.90
52675;DHT22;38569;52.722;6.440;2023-09-30T01:44:48;11.60;99.90
52675;DHT22;38569;52.722;6.440;2023-09-30T01:47:14;11.60;99.90
52675;DHT22;38569;52.722;6.440;2023-09-30T01:49:40;11.60;99.90
52675;DHT22;38569;52.722;6.440;2023-09-30T01:52:05;11.50;99.90
52675;DHT22;38569;52.722;6.440;2023-09-30T01:54:31;11.50;99.90
52675;DHT22;38569;52.722;6.440;2023-09-30T01:56:57;11.50;99.90
52675;DHT22;38569;52.722;6.440;2023-09-30T01:59:24;11.50;99.90
52675;DHT22;38569;52.722;6.440;2023-09-30T02:01:50;11.50;99.90
52675;DHT22;38569;52.722;6.440;2023-09-30T02:04:16;11.50;99.90
52675;DHT22;38569;52.722;6.440;2023-09-30T02:06:42;11.50;99.90
52675;DHT22;38569;52.722;6.440;2023-09-30T02:09:08;11.50;99.90
52675;DHT22;38569;52.722;6.440;2023-09-30T02:11:35;11.50;99.90
52675;DHT22;38569;52.722;6.440;2023-09-30T02:14:02;11.50;99.90
52675;DHT22;38569;52.722;6.440;2023-09-30T02:16:28;11.50;99.90
52675;DHT22;38569;52.722;6.440;2023-09-30T02:18:53;11.50;99.90
52675;DHT22;38569;52.722;6.440;2023-09-30T02:21:19;11.40;99.90
52675;DHT22;38569;52.722;6.440;2023-09-30T02:23:47;11.40;99.90
52675;DHT22;38569;52.722;6.440;2023-09-30T02:26:16;11.40;99.90
52675;DHT22;38569;52.722;6.440;2023-09-30T02:28:43;11.40;99.90
52675;DHT22;38569;52.722;6.440;2023-09-30T02:31:08;11.40;99.90
52675;DHT22;38569;52.722;6.440;2023-09-30T02:33:34;11.40;99.90
52675;DHT22;38569;52.722;6.440;2023-09-30T02:36:07;11.40;99.90
52675;DHT22;38569;52.722;6.440;2023-09-30T02:38:34;11.40;99.90
52675;DHT22;38569;52.722;6.440;2023-09-30T02:41:02;11.40;99.90
52675;DHT22;38569;52.722;6.440;2023-09-30T02:43:28;11.40;99.90
52675;DHT22;38569;52.722;6.440;2023-09-30T02:45:54;11.40;99.90
52675;DHT22;38569;52.722;6.440;2023-09-30T02:48:19;11.40;99.90
52675;DHT22;38569;52.722;6.440;2023-09-30T02:50:45;11.40;99.90
52675;DHT22;38569;52.722;6.440;2023-09-30T02:53:11;11.50;99.90
52675;DHT22;38569;52.722;6.440;2023-09-30T02:55:41;11.40;99.90
52675;DHT22;38569;52.722;6.440;2023-09-30T02:58:07;11.40;99.90
52675;DHT22;38569;52.722;6.440;2023-09-30T03:00:35;11.40;99.90
52675;DHT22;38569;52.722;6.440;2023-09-30T03:03:02;11.40;99.90
52675;DHT22;38569;52.722;6.440;2023-09-30T03:05:28;11.40;99.90
52675;DHT22;38569;52.722;6.440;2023-09-30T03:07:56;11.30;99.90
52675;DHT22;38569;52.722;6.440;2023-09-30T03:10:22;11.30;99.90
52675;DHT22;38569;52.722;6.440;2023-09-30T03:12:55;11.30;99.90
52675;DHT22;38569;52.722;6.440;2023-09-30T03:15:21;11.40;99.90
52675;DHT22;38569;52.722;6.440;2023-09-30T03:17:47;11.30;99.90
52675;DHT22;38569;52.722;6.440;2023-09-30T03:20:14;11.30;99.90
52675;DHT22;38569;52.722;6.440;2023-09-30T03:22:44;11.30;99.90
52675;DHT22;38569;52.722;6.440;2023-09-30T03:25:12;11.30;99.90
52675;DHT22;38569;52.722;6.440;2023-09-30T03:27:40;11.30;99.90
52675;DHT22;38569;52.722;6.440;2023-09-30T03:30:07;11.30;99.90
52675;DHT22;38569;52.722;6.440;2023-09-30T03:32:34;11.30;99.90
52675;DHT22;38569;52.722;6.440;2023-09-30T03:35:07;11.30;99.90
52675;DHT22;38569;52.722;6.440;2023-09-30T03:37:36;11.30;99.90
52675;DHT22;38569;52.722;6.440;2023-09-30T03:40:02;11.20;99.90
52675;DHT22;38569;52.722;6.440;2023-09-30T03:42:38;11.20;99.90
52675;DHT22;38569;52.722;6.440;2023-09-30T03:45:05;11.20;99.90
52675;DHT22;38569;52.722;6.440;2023-09-30T03:47:39;11.10;99.90
52675;DHT22;38569;52.722;6.440;2023-09-30T03:50:05;11.10;99.90
52675;DHT22;38569;52.722;6.440;2023-09-30T03:52:33;11.10;99.90
52675;DHT22;38569;52.722;6.440;2023-09-30T03:55:03;11.10;99.90
52675;DHT22;38569;52.722;6.440;2023-09-30T03:57:34;11.10;99.90
52675;DHT22;38569;52.722;6.440;2023-09-30T04:00:00;11.10;99.90
52675;DHT22;38569;52.722;6.440;2023-09-30T04:02:26;11.10;99.90
52675;DHT22;38569;52.722;6.440;2023-09-30T04:04:53;11.10;99.90
52675;DHT22;38569;52.722;6.440;2023-09-30T04:07:21;11.10;99.90
52675;DHT22;38569;52.722;6.440;2023-09-30T04:09:48;11.10;99.90
52675;DHT22;38569;52.722;6.440;2023-09-30T04:12:13;11.10;99.90
52675;DHT22;38569;52.722;6.440;2023-09-30T04:14:39;11.20;99.90
52675;DHT22;38569;52.722;6.440;2023-09-30T04:17:05;11.20;99.90
52675;DHT22;38569;52.722;6.440;2023-09-30T04:19:30;11.20;99.90
52675;DHT22;38569;52.722;6.440;2023-09-30T04:21:57;11.30;99.90
52675;DHT22;38569;52.722;6.440;2023-09-30T04:24:22;11.30;99.90
52675;DHT22;38569;52.722;6.440;2023-09-30T04:26:48;11.30;99.90
52675;DHT22;38569;52.722;6.440;2023-09-30T04:29:16;11.30;99.90
52675;DHT22;38569;52.722;6.440;2023-09-30T04:31:42;11.40;99.90
52675;DHT22;38569;52.722;6.440;2023-09-30T04:34:07;11.40;99.90
52675;DHT22;38569;52.722;6.440;2023-09-30T04:36:33;11.40;99.90
52675;DHT22;38569;52.722;6.440;2023-09-30T04:39:00;11.40;99.90
52675;DHT22;38569;52.722;6.440;2023-09-30T04:41:26;11.40;99.90
52675;DHT22;38569;52.722;6.440;2023-09-30T04:43:52;11.40;99.90
52675;DHT22;38569;52.722;6.440;2023-09-30T04:46:18;11.40;99.90
52675;DHT22;38569;52.722;6.440;2023-09-30T04:48:46;11.40;99.90
52675;DHT22;38569;52.722;6.440;2023-09-30T04:51:14;11.50;99.90
52675;DHT22;38569;52.722;6.440;2023-09-30T04:53:43;11.50;99.90
52675;DHT22;38569;52.722;6.440;2023-09-30T04:56:10;11.40;99.90
52675;DHT22;38569;52.722;6.440;2023-09-30T04:58:36;11.40;99.90
52675;DHT22;38569;52.722;6.440;2023-09-30T05:01:02;11.40;99.90
52675;DHT22;38569;52.722;6.440;2023-09-30T05:03:27;11.40;99.90
52675;DHT22;38569;52.722;6.440;2023-09-30T05:05:53;11.50;99.90
52675;DHT22;38569;52.722;6.440;2023-09-30T05:08:22;11.40;99.90
52675;DHT22;38569;52.722;6.440;2023-09-30T05:10:48;11.40;99.90
52675;DHT22;38569;52.722;6.440;2023-09-30T05:13:13;11.30;99.90
52675;DHT22;38569;52.722;6.440;2023-09-30T05:15:39;11.30;99.90
52675;DHT22;38569;52.722;6.440;2023-09-30T05:18:06;11.30;99.90
52675;DHT22;38569;52.722;6.440;2023-09-30T05:20:33;11.20;99.90
52675;DHT22;38569;52.722;6.440;2023-09-30T05:23:02;11.20;99.90
52675;DHT22;38569;52.722;6.440;2023-09-30T05:25:28;11.10;99.90
52675;DHT22;38569;52.722;6.440;2023-09-30T05:27:54;11.10;99.90
52675;DHT22;38569;52.722;6.440;2023-09-30T05:30:20;11.10;99.90
52675;DHT22;38569;52.722;6.440;2023-09-30T05:32:46;11.10;99.90
52675;DHT22;38569;52.722;6.440;2023-09-30T05:35:12;11.00;99.90
52675;DHT22;38569;52.722;6.440;2023-09-30T05:37:40;11.00;99.90
52675;DHT22;38569;52.722;6.440;2023-09-30T05:40:06;11.00;99.90
52675;DHT22;38569;52.722;6.440;2023-09-30T05:42:44;11.00;99.90
52675;DHT22;38569;52.722;6.440;2023-09-30T05:45:10;11.00;99.90
52675;DHT22;38569;52.722;6.440;2023-09-30T05:47:38;11.00;99.90
52675;DHT22;38569;52.722;6.440;2023-09-30T05:50:05;10.90;99.90
52675;DHT22;38569;52.722;6.440;2023-09-30T05:52:33;10.90;99.90
52675;DHT22;38569;52.722;6.440;2023-09-30T05:54:59;10.90;99.90
52675;DHT22;38569;52.722;6.440;2023-09-30T05:57:27;10.90;99.90
52675;DHT22;38569;52.722;6.440;2023-09-30T05:59:52;10.90;99.90
52675;DHT22;38569;52.722;6.440;2023-09-30T06:02:18;10.90;99.90
52675;DHT22;38569;52.722;6.440;2023-09-30T06:04:45;10.90;99.90
52675;DHT22;38569;52.722;6.440;2023-09-30T06:07:12;10.90;99.90
52675;DHT22;38569;52.722;6.440;2023-09-30T06:09:38;10.90;99.90
52675;DHT22;38569;52.722;6.440;2023-09-30T06:12:03;11.00;99.90
52675;DHT22;38569;52.722;6.440;2023-09-30T06:14:32;11.00;99.90
52675;DHT22;38569;52.722;6.440;2023-09-30T06:16:58;11.10;99.90
52675;DHT22;38569;52.722;6.440;2023-09-30T06:19:24;11.10;99.90
52675;DHT22;38569;52.722;6.440;2023-09-30T06:21:51;11.20;99.90
52675;DHT22;38569;52.722;6.440;2023-09-30T06:24:17;11.30;99.90
52675;DHT22;38569;52.722;6.440;2023-09-30T06:26:45;11.40;99.90
52675;DHT22;38569;52.722;6.440;2023-09-30T06:29:14;11.60;99.90
52675;DHT22;38569;52.722;6.440;2023-09-30T06:31:39;11.70;99.90
52675;DHT22;38569;52.722;6.440;2023-09-30T06:34:05;11.70;99.90
52675;DHT22;38569;52.722;6.440;2023-09-30T06:36:32;11.70;99.90
52675;DHT22;38569;52.722;6.440;2023-09-30T06:38:58;11.80;99.90
52675;DHT22;38569;52.722;6.440;2023-09-30T06:41:24;11.80;99.90
52675;DHT22;38569;52.722;6.440;2023-09-30T06:43:51;11.80;99.90
52675;DHT22;38569;52.722;6.440;2023-09-30T06:46:17;11.80;99.90
52675;DHT22;38569;52.722;6.440;2023-09-30T06:48:43;11.90;99.90
52675;DHT22;38569;52.722;6.440;2023-09-30T06:51:15;12.00;99.90
52675;DHT22;38569;52.722;6.440;2023-09-30T06:53:41;12.20;99.90
52675;DHT22;38569;52.722;6.440;2023-09-30T06:56:07;12.30;99.90
52675;DHT22;38569;52.722;6.440;2023-09-30T06:58:33;12.40;99.90
52675;DHT22;38569;52.722;6.440;2023-09-30T07:00:59;12.50;99.90
52675;DHT22;38569;52.722;6.440;2023-09-30T07:03:25;12.60;99.90
52675;DHT22;38569;52.722;6.440;2023-09-30T07:05:51;12.70;99.90
52675;DHT22;38569;52.722;6.440;2023-09-30T07:08:17;12.80;99.90
52675;DHT22;38569;52.722;6.440;2023-09-30T07:10:44;13.00;99.90
52675;DHT22;38569;52.722;6.440;2023-09-30T07:13:12;13.10;99.90
52675;DHT22;38569;52.722;6.440;2023-09-30T07:15:37;13.20;99.90
52675;DHT22;38569;52.722;6.440;2023-09-30T07:18:03;13.30;99.90
52675;DHT22;38569;52.722;6.440;2023-09-30T07:20:29;13.40;99.90
52675;DHT22;38569;52.722;6.440;2023-09-30T07:22:59;13.50;99.90
52675;DHT22;38569;52.722;6.440;2023-09-30T07:25:26;13.70;99.90
52675;DHT22;38569;52.722;6.440;2023-09-30T07:27:52;13.80;99.90
52675;DHT22;38569;52.722;6.440;2023-09-30T07:30:18;13.80;99.90
52675;DHT22;38569;52.722;6.440;2023-09-30T07:32:44;13.80;99.90
52675;DHT22;38569;52.722;6.440;2023-09-30T07:35:11;13.90;99.90
52675;DHT22;38569;52.722;6.440;2023-09-30T07:37:37;13.90;99.90
52675;DHT22;38569;52.722;6.440;2023-09-30T07:40:03;13.90;99.90
52675;DHT22;38569;52.722;6.440;2023-09-30T07:42:30;13.90;99.90
52675;DHT22;38569;52.722;6.440;2023-09-30T07:44:56;14.00;99.90
52675;DHT22;38569;52.722;6.440;2023-09-30T07:47:22;14.10;99.90
52675;DHT22;38569;52.722;6.440;2023-09-30T07:49:48;14.10;99.90
52675;DHT22;38569;52.722;6.440;2023-09-30T07:52:14;14.20;99.90
52675;DHT22;38569;52.722;6.440;2023-09-30T07:54:40;14.30;99.90
52675;DHT22;38569;52.722;6.440;2023-09-30T07:57:06;14.30;99.90
52675;DHT22;38569;52.722;6.440;2023-09-30T07:59:32;14.40;99.90
52675;DHT22;38569;52.722;6.440;2023-09-30T08:01:59;14.50;99.90
52675;DHT22;38569;52.722;6.440;2023-09-30T08:04:24;14.60;99.90
52675;DHT22;38569;52.722;6.440;2023-09-30T08:06:50;14.70;99.90
52675;DHT22;38569;52.722;6.440;2023-09-30T08:09:19;14.70;99.90
52675;DHT22;38569;52.722;6.440;2023-09-30T08:11:45;14.70;99.90
52675;DHT22;38569;52.722;6.440;2023-09-30T08:14:10;14.80;99.90
52675;DHT22;38569;52.722;6.440;2023-09-30T08:16:37;14.90;99.90
52675;DHT22;38569;52.722;6.440;2023-09-30T08:19:03;15.00;99.90
52675;DHT22;38569;52.722;6.440;2023-09-30T08:21:29;15.00;99.90
52675;DHT22;38569;52.722;6.440;2023-09-30T08:23:57;15.10;99.90
52675;DHT22;38569;52.722;6.440;2023-09-30T08:26:22;15.20;99.90
52675;DHT22;38569;52.722;6.440;2023-09-30T08:28:48;15.30;99.90
52675;DHT22;38569;52.722;6.440;2023-09-30T08:31:15;15.50;99.90
52675;DHT22;38569;52.722;6.440;2023-09-30T08:33:41;15.70;99.90
52675;DHT22;38569;52.722;6.440;2023-09-30T08:36:09;15.80;99.90
52675;DHT22;38569;52.722;6.440;2023-09-30T08:38:39;15.80;99.90
52675;DHT22;38569;52.722;6.440;2023-09-30T08:41:06;15.70;99.90
52675;DHT22;38569;52.722;6.440;2023-09-30T08:43:37;15.70;99.90
52675;DHT22;38569;52.722;6.440;2023-09-30T08:46:04;15.70;99.90
52675;DHT22;38569;52.722;6.440;2023-09-30T08:48:32;15.70;99.90
52675;DHT22;38569;52.722;6.440;2023-09-30T08:50:59;15.80;99.90
52675;DHT22;38569;52.722;6.440;2023-09-30T08:53:26;15.80;99.90
52675;DHT22;38569;52.722;6.440;2023-09-30T08:55:56;15.80;99.90
52675;DHT22;38569;52.722;6.440;2023-09-30T08:58:28;15.90;99.90
52675;DHT22;38569;52.722;6.440;2023-09-30T09:00:54;15.90;99.90
52675;DHT22;38569;52.722;6.440;2023-09-30T09:03:22;15.90;99.90
52675;DHT22;38569;52.722;6.440;2023-09-30T09:05:54;16.00;99.90
52675;DHT22;38569;52.722;6.440;2023-09-30T09:08:25;16.10;99.90
52675;DHT22;38569;52.722;6.440;2023-09-30T09:10:57;16.10;99.90
52675;DHT22;38569;52.722;6.440;2023-09-30T09:13:24;16.20;99.90
52675;DHT22;38569;52.722;6.440;2023-09-30T09:16:05;16.30;99.90
52675;DHT22;38569;52.722;6.440;2023-09-30T09:18:32;16.20;99.90
52675;DHT22;38569;52.722;6.440;2023-09-30T09:23:39;16.40;99.90
52675;DHT22;38569;52.722;6.440;2023-09-30T09:26:05;16.40;99.90
52675;DHT22;38569;52.722;6.440;2023-09-30T09:28:35;16.60;99.90
52675;DHT22;38569;52.722;6.440;2023-09-30T09:31:02;16.70;99.90
52675;DHT22;38569;52.722;6.440;2023-09-30T09:33:37;16.80;99.90
52675;DHT22;38569;52.722;6.440;2023-09-30T09:36:03;16.80;99.90
52675;DHT22;38569;52.722;6.440;2023-09-30T09:38:48;16.80;99.90
52675;DHT22;38569;52.722;6.440;2023-09-30T09:41:14;16.90;99.90
52675;DHT22;38569;52.722;6.440;2023-09-30T09:43:43;17.20;99.90
52675;DHT22;38569;52.722;6.440;2023-09-30T09:46:10;18.40;99.90
52675;DHT22;38569;52.722;6.440;2023-09-30T09:48:36;19.60;99.90
52675;DHT22;38569;52.722;6.440;2023-09-30T09:51:04;20.70;99.90
52675;DHT22;38569;52.722;6.440;2023-09-30T09:53:34;21.60;99.90
52675;DHT22;38569;52.722;6.440;2023-09-30T09:56:02;22.20;99.90
52675;DHT22;38569;52.722;6.440;2023-09-30T09:58:32;22.70;99.90
52675;DHT22;38569;52.722;6.440;2023-09-30T10:01:00;23.10;99.90
52675;DHT22;38569;52.722;6.440;2023-09-30T10:03:26;23.40;99.90
52675;DHT22;38569;52.722;6.440;2023-09-30T10:05:53;23.80;99.90
52675;DHT22;38569;52.722;6.440;2023-09-30T10:08:20;24.00;99.90
52675;DHT22;38569;52.722;6.440;2023-09-30T10:10:48;24.60;99.90
52675;DHT22;38569;52.722;6.440;2023-09-30T10:19:08;24.90;99.90
52675;DHT22;38569;52.722;6.440;2023-09-30T10:21:34;24.60;99.90
52675;DHT22;38569;52.722;6.440;2023-09-30T10:40:49;26.20;99.90
52675;DHT22;38569;52.722;6.440;2023-09-30T10:43:36;26.20;99.90
52675;DHT22;38569;52.722;6.440;2023-09-30T10:48:53;26.40;99.90
52675;DHT22;38569;52.722;6.440;2023-09-30T10:51:20;27.00;99.60
52675;DHT22;38569;52.722;6.440;2023-09-30T10:53:54;27.00;98.60
52675;DHT22;38569;52.722;6.440;2023-09-30T10:56:34;26.80;97.20
52675;DHT22;38569;52.722;6.440;2023-09-30T10:59:00;26.90;96.50
52675;DHT22;38569;52.722;6.440;2023-09-30T11:01:33;26.80;94.60
52675;DHT22;38569;52.722;6.440;2023-09-30T11:04:03;26.80;95.30
52675;DHT22;38569;52.722;6.440;2023-09-30T11:06:31;27.60;95.60
52675;DHT22;38569;52.722;6.440;2023-09-30T11:08:58;28.00;93.60
52675;DHT22;38569;52.722;6.440;2023-09-30T11:11:45;28.20;91.70
52675;DHT22;38569;52.722;6.440;2023-09-30T11:16:50;27.90;90.80
52675;DHT22;38569;52.722;6.440;2023-09-30T11:19:16;28.10;87.70
52675;DHT22;38569;52.722;6.440;2023-09-30T11:21:43;28.10;87.50
52675;DHT22;38569;52.722;6.440;2023-09-30T11:24:13;28.30;87.90
52675;DHT22;38569;52.722;6.440;2023-09-30T11:26:38;28.50;85.30
52675;DHT22;38569;52.722;6.440;2023-09-30T11:29:14;28.40;85.70
52675;DHT22;38569;52.722;6.440;2023-09-30T11:31:46;28.00;85.40
52675;DHT22;38569;52.722;6.440;2023-09-30T11:34:12;27.50;84.40
52675;DHT22;38569;52.722;6.440;2023-09-30T11:36:52;27.60;85.30
52675;DHT22;38569;52.722;6.440;2023-09-30T11:39:26;27.70;83.60
52675;DHT22;38569;52.722;6.440;2023-09-30T11:41:53;27.70;80.60
52675;DHT22;38569;52.722;6.440;2023-09-30T11:44:21;27.30;79.10
52675;DHT22;38569;52.722;6.440;2023-09-30T11:47:07;26.30;79.40
52675;DHT22;38569;52.722;6.440;2023-09-30T11:49:34;25.20;79.00
52675;DHT22;38569;52.722;6.440;2023-09-30T11:52:05;24.70;83.70
52675;DHT22;38569;52.722;6.440;2023-09-30T11:54:38;24.50;84.70
52675;DHT22;38569;52.722;6.440;2023-09-30T11:57:07;24.50;85.20
52675;DHT22;38569;52.722;6.440;2023-09-30T11:59:35;24.80;85.40
52675;DHT22;38569;52.722;6.440;2023-09-30T12:02:02;25.40;86.00
52675;DHT22;38569;52.722;6.440;2023-09-30T12:04:29;25.90;85.10
52675;DHT22;38569;52.722;6.440;2023-09-30T12:06:55;26.10;83.00
52675;DHT22;38569;52.722;6.440;2023-09-30T12:09:21;26.20;82.50
52675;DHT22;38569;52.722;6.440;2023-09-30T12:11:52;26.40;80.30
52675;DHT22;38569;52.722;6.440;2023-09-30T12:14:19;26.60;79.90
52675;DHT22;38569;52.722;6.440;2023-09-30T12:16:46;26.80;78.20
52675;DHT22;38569;52.722;6.440;2023-09-30T12:19:17;27.00;77.90
52675;DHT22;38569;52.722;6.440;2023-09-30T12:21:44;27.20;77.60
52675;DHT22;38569;52.722;6.440;2023-09-30T12:24:12;27.00;77.50
52675;DHT22;38569;52.722;6.440;2023-09-30T12:26:45;27.10;78.10
52675;DHT22;38569;52.722;6.440;2023-09-30T12:29:19;27.00;76.00
52675;DHT22;38569;52.722;6.440;2023-09-30T12:31:45;27.30;75.70
52675;DHT22;38569;52.722;6.440;2023-09-30T12:34:14;27.60;75.80
52675;DHT22;38569;52.722;6.440;2023-09-30T12:36:41;27.80;75.40
52675;DHT22;38569;52.722;6.440;2023-09-30T12:39:07;27.90;76.00
52675;DHT22;38569;52.722;6.440;2023-09-30T12:41:40;28.10;75.80
52675;DHT22;38569;52.722;6.440;2023-09-30T12:44:10;27.80;75.30
52675;DHT22;38569;52.722;6.440;2023-09-30T12:46:37;27.80;75.60
52675;DHT22;38569;52.722;6.440;2023-09-30T12:49:08;27.40;75.10
52675;DHT22;38569;52.722;6.440;2023-09-30T12:51:35;27.60;75.80
52675;DHT22;38569;52.722;6.440;2023-09-30T12:54:02;27.50;75.10
52675;DHT22;38569;52.722;6.440;2023-09-30T12:56:28;27.50;75.10
52675;DHT22;38569;52.722;6.440;2023-09-30T12:58:57;27.50;76.80
52675;DHT22;38569;52.722;6.440;2023-09-30T13:01:23;27.50;74.90
52675;DHT22;38569;52.722;6.440;2023-09-30T13:03:49;27.40;73.90
52675;DHT22;38569;52.722;6.440;2023-09-30T13:06:15;27.50;73.20
52675;DHT22;38569;52.722;6.440;2023-09-30T13:08:42;27.50;72.60
52675;DHT22;38569;52.722;6.440;2023-09-30T13:11:08;27.10;71.60
52675;DHT22;38569;52.722;6.440;2023-09-30T13:13:34;26.60;72.70
52675;DHT22;38569;52.722;6.440;2023-09-30T13:16:01;26.10;73.60
52675;DHT22;38569;52.722;6.440;2023-09-30T13:18:27;25.50;74.70
52675;DHT22;38569;52.722;6.440;2023-09-30T13:20:53;25.00;75.20
52675;DHT22;38569;52.722;6.440;2023-09-30T13:23:19;24.90;77.10
52675;DHT22;38569;52.722;6.440;2023-09-30T13:25:45;25.00;77.30
52675;DHT22;38569;52.722;6.440;2023-09-30T13:28:11;24.90;77.50
52675;DHT22;38569;52.722;6.440;2023-09-30T13:30:37;24.80;77.30
52675;DHT22;38569;52.722;6.440;2023-09-30T13:33:03;24.60;78.20
52675;DHT22;38569;52.722;6.440;2023-09-30T13:35:29;24.60;77.80
52675;DHT22;38569;52.722;6.440;2023-09-30T13:37:54;24.60;78.60
52675;DHT22;38569;52.722;6.440;2023-09-30T13:40:20;24.90;77.70
52675;DHT22;38569;52.722;6.440;2023-09-30T13:42:46;25.20;77.30
52675;DHT22;38569;52.722;6.440;2023-09-30T13:45:12;25.40;76.70
52675;DHT22;38569;52.722;6.440;2023-09-30T13:47:38;25.40;76.60
52675;DHT22;38569;52.722;6.440;2023-09-30T13:50:05;25.50;76.80
52675;DHT22;38569;52.722;6.440;2023-09-30T13:52:34;25.60;76.70
52675;DHT22;38569;52.722;6.440;2023-09-30T13:55:00;25.20;76.60
52675;DHT22;38569;52.722;6.440;2023-09-30T13:57:25;24.80;77.00
52675;DHT22;38569;52.722;6.440;2023-09-30T13:59:51;24.40;77.50
52675;DHT22;38569;52.722;6.440;2023-09-30T14:02:17;24.00;78.10
52675;DHT22;38569;52.722;6.440;2023-09-30T14:04:43;23.60;78.50
52675;DHT22;38569;52.722;6.440;2023-09-30T14:07:09;23.30;78.70
52675;DHT22;38569;52.722;6.440;2023-09-30T14:09:35;23.10;79.60
52675;DHT22;38569;52.722;6.440;2023-09-30T14:12:01;22.90;80.40
52675;DHT22;38569;52.722;6.440;2023-09-30T14:14:31;22.90;81.30
52675;DHT22;38569;52.722;6.440;2023-09-30T14:16:57;22.90;82.70
52675;DHT22;38569;52.722;6.440;2023-09-30T14:19:23;23.00;83.40
52675;DHT22;38569;52.722;6.440;2023-09-30T14:21:49;22.90;83.50
52675;DHT22;38569;52.722;6.440;2023-09-30T14:24:15;23.00;83.60
52675;DHT22;38569;52.722;6.440;2023-09-30T14:26:41;23.10;82.10
52675;DHT22;38569;52.722;6.440;2023-09-30T14:29:06;23.20;80.60
52675;DHT22;38569;52.722;6.440;2023-09-30T14:31:32;23.10;78.40
52675;DHT22;38569;52.722;6.440;2023-09-30T14:33:57;23.10;77.80
52675;DHT22;38569;52.722;6.440;2023-09-30T14:36:23;22.90;78.70
52675;DHT22;38569;52.722;6.440;2023-09-30T14:38:49;22.70;78.90
52675;DHT22;38569;52.722;6.440;2023-09-30T14:41:15;22.60;79.50
52675;DHT22;38569;52.722;6.440;2023-09-30T14:43:41;22.50;80.00
52675;DHT22;38569;52.722;6.440;2023-09-30T14:46:07;22.50;79.80
52675;DHT22;38569;52.722;6.440;2023-09-30T14:48:34;22.50;80.10
52675;DHT22;38569;52.722;6.440;2023-09-30T14:51:01;22.40;80.70
52675;DHT22;38569;52.722;6.440;2023-09-30T14:53:30;22.30;81.10
52675;DHT22;38569;52.722;6.440;2023-09-30T14:55:55;22.20;81.30
52675;DHT22;38569;52.722;6.440;2023-09-30T14:58:21;22.00;82.70
52675;DHT22;38569;52.722;6.440;2023-09-30T15:00:47;21.90;83.00
52675;DHT22;38569;52.722;6.440;2023-09-30T15:03:13;21.70;83.80
52675;DHT22;38569;52.722;6.440;2023-09-30T15:05:38;21.60;84.40
52675;DHT22;38569;52.722;6.440;2023-09-30T15:08:04;21.60;85.00
52675;DHT22;38569;52.722;6.440;2023-09-30T15:10:30;21.60;85.50
52675;DHT22;38569;52.722;6.440;2023-09-30T15:12:56;21.60;86.60
52675;DHT22;38569;52.722;6.440;2023-09-30T15:15:23;21.60;86.60
52675;DHT22;38569;52.722;6.440;2023-09-30T15:17:49;21.70;86.30
52675;DHT22;38569;52.722;6.440;2023-09-30T15:20:16;21.70;86.40
52675;DHT22;38569;52.722;6.440;2023-09-30T15:22:42;21.70;86.80
52675;DHT22;38569;52.722;6.440;2023-09-30T15:25:08;21.60;86.90
52675;DHT22;38569;52.722;6.440;2023-09-30T15:27:34;21.60;87.60
52675;DHT22;38569;52.722;6.440;2023-09-30T15:30:01;21.80;88.10
52675;DHT22;38569;52.722;6.440;2023-09-30T15:32:28;21.80;88.20
52675;DHT22;38569;52.722;6.440;2023-09-30T15:34:54;22.00;88.10
52675;DHT22;38569;52.722;6.440;2023-09-30T15:37:20;22.00;87.90
52675;DHT22;38569;52.722;6.440;2023-09-30T15:39:45;22.00;88.00
52675;DHT22;38569;52.722;6.440;2023-09-30T15:42:12;21.90;88.20
52675;DHT22;38569;52.722;6.440;2023-09-30T15:44:39;21.80;88.70
52675;DHT22;38569;52.722;6.440;2023-09-30T15:47:05;21.70;89.00
52675;DHT22;38569;52.722;6.440;2023-09-30T15:49:32;21.70;90.20
52675;DHT22;38569;52.722;6.440;2023-09-30T15:51:58;21.70;90.80
52675;DHT22;38569;52.722;6.440;2023-09-30T15:54:23;21.60;91.00
52675;DHT22;38569;52.722;6.440;2023-09-30T15:56:49;21.60;91.60
52675;DHT22;38569;52.722;6.440;2023-09-30T15:59:15;21.60;92.00
52675;DHT22;38569;52.722;6.440;2023-09-30T16:01:40;21.50;93.10
52675;DHT22;38569;52.722;6.440;2023-09-30T16:04:06;21.50;93.70